sensor_id;sensor_type;location;lat;lon;timestamp;P1;durP1;ratioP1;P2;durP2;ratioP2
32746;SDS011;19118;50.860;13.662;2023-02-01T00:03:32;12.57;;;4.37;;
32746;SDS011;19118;50.860;13.662;2023-02-01T00:08:33;15.05;;;5.10;;
32746;SDS011;19118;50.860;13.662;2023-02-01T00:13:34;14.68;;;5.72;;
32746;SDS011;19118;50.860;13.662;2023-02-01T00:18:37;17.90;;;5.28;;
32746;SDS011;19118;50.860;13.662;2023-02-01T00:23:38;21.10;;;5.78;;
32746;SDS011;19118;50.860;13.662;2023-02-01T00:28:41;20.40;;;5.13;;
32746;SDS011;19118;50.860;13.662;2023-02-01T00:33:41;17.50;;;4.53;;
32746;SDS011;19118;50.860;13.662;2023-02-01T00:38:42;13.90;;;4.78;;
32746;SDS011;19118;50.860;13.662;2023-02-01T00:43:43;12.98;;;3.80;;
32746;SDS011;19118;50.860;13.662;2023-02-01T00:48:44;17.92;;;4.53;;
32746;SDS011;19118;50.860;13.662;2023-02-01T00:53:45;21.98;;;4.35;;
32746;SDS011;19118;50.860;13.662;2023-02-01T00:58:45;18.98;;;6.18;;
32746;SDS011;19118;50.860;13.662;2023-02-01T01:03:47;20.27;;;4.35;;
32746;SDS011;19118;50.860;13.662;2023-02-01T01:08:53;15.60;;;3.60;;
32746;SDS011;19118;50.860;13.662;2023-02-01T01:13:56;16.50;;;4.53;;
32746;SDS011;19118;50.860;13.662;2023-02-01T01:18:57;12.15;;;3.17;;
32746;SDS011;19118;50.860;13.662;2023-02-01T01:23:58;12.88;;;3.42;;
32746;SDS011;19118;50.860;13.662;2023-02-01T01:28:59;13.45;;;3.72;;
32746;SDS011;19118;50.860;13.662;2023-02-01T01:33:59;23.83;;;3.05;;
32746;SDS011;19118;50.860;13.662;2023-02-01T01:39:00;22.98;;;3.58;;
32746;SDS011;19118;50.860;13.662;2023-02-01T01:44:05;11.73;;;3.08;;
32746;SDS011;19118;50.860;13.662;2023-02-01T01:49:11;17.73;;;3.17;;
32746;SDS011;19118;50.860;13.662;2023-02-01T01:54:21;14.48;;;3.60;;
32746;SDS011;19118;50.860;13.662;2023-02-01T01:59:24;12.93;;;3.35;;
32746;SDS011;19118;50.860;13.662;2023-02-01T02:04:24;18.02;;;3.58;;
32746;SDS011;19118;50.860;13.662;2023-02-01T02:09:25;20.60;;;3.70;;
32746;SDS011;19118;50.860;13.662;2023-02-01T02:14:25;17.75;;;3.72;;
32746;SDS011;19118;50.860;13.662;2023-02-01T02:35:55;13.32;;;3.20;;
32746;SDS011;19118;50.860;13.662;2023-02-01T02:41:05;20.85;;;3.50;;
32746;SDS011;19118;50.860;13.662;2023-02-01T02:46:36;16.70;;;3.35;;
32746;SDS011;19118;50.860;13.662;2023-02-01T02:52:01;23.48;;;3.33;;
32746;SDS011;19118;50.860;13.662;2023-02-01T03:02:49;21.38;;;4.63;;
32746;SDS011;19118;50.860;13.662;2023-02-01T03:08:12;8.93;;;2.70;;
32746;SDS011;19118;50.860;13.662;2023-02-01T03:18:55;29.88;;;4.60;;
32746;SDS011;19118;50.860;13.662;2023-02-01T03:24:04;20.80;;;3.50;;
32746;SDS011;19118;50.860;13.662;2023-02-01T03:29:13;23.20;;;3.88;;
32746;SDS011;19118;50.860;13.662;2023-02-01T03:34:18;11.57;;;2.92;;
32746;SDS011;19118;50.860;13.662;2023-02-01T03:39:27;19.70;;;3.03;;
32746;SDS011;19118;50.860;13.662;2023-02-01T03:44:31;20.08;;;3.20;;
32746;SDS011;19118;50.860;13.662;2023-02-01T03:49:40;14.45;;;3.60;;
32746;SDS011;19118;50.860;13.662;2023-02-01T03:54:45;23.95;;;2.80;;
32746;SDS011;19118;50.860;13.662;2023-02-01T03:59:46;7.57;;;2.53;;
32746;SDS011;19118;50.860;13.662;2023-02-01T04:04:47;19.98;;;3.30;;
32746;SDS011;19118;50.860;13.662;2023-02-01T04:09:51;17.75;;;2.95;;
32746;SDS011;19118;50.860;13.662;2023-02-01T04:14:51;17.95;;;3.47;;
32746;SDS011;19118;50.860;13.662;2023-02-01T04:19:51;19.27;;;3.13;;
32746;SDS011;19118;50.860;13.662;2023-02-01T04:24:52;23.48;;;2.97;;
32746;SDS011;19118;50.860;13.662;2023-02-01T04:29:52;14.37;;;2.77;;
32746;SDS011;19118;50.860;13.662;2023-02-01T04:34:52;10.65;;;2.72;;
32746;SDS011;19118;50.860;13.662;2023-02-01T04:39:53;13.50;;;2.90;;
32746;SDS011;19118;50.860;13.662;2023-02-01T04:44:53;18.95;;;3.30;;
32746;SDS011;19118;50.860;13.662;2023-02-01T04:49:53;15.48;;;2.90;;
32746;SDS011;19118;50.860;13.662;2023-02-01T04:54:54;18.98;;;3.30;;
32746;SDS011;19118;50.860;13.662;2023-02-01T04:59:57;20.73;;;2.60;;
32746;SDS011;19118;50.860;13.662;2023-02-01T05:04:57;14.15;;;3.22;;
32746;SDS011;19118;50.860;13.662;2023-02-01T05:09:58;28.25;;;3.22;;
32746;SDS011;19118;50.860;13.662;2023-02-01T05:14:58;18.27;;;2.97;;
32746;SDS011;19118;50.860;13.662;2023-02-01T05:19:58;23.57;;;3.77;;
32746;SDS011;19118;50.860;13.662;2023-02-01T05:24:59;15.68;;;2.67;;
32746;SDS011;19118;50.860;13.662;2023-02-01T05:29:59;10.48;;;2.72;;
32746;SDS011;19118;50.860;13.662;2023-02-01T05:35:00;24.87;;;3.97;;
32746;SDS011;19118;50.860;13.662;2023-02-01T05:40:00;16.85;;;3.28;;
32746;SDS011;19118;50.860;13.662;2023-02-01T05:45:00;31.40;;;4.17;;
32746;SDS011;19118;50.860;13.662;2023-02-01T05:50:01;20.20;;;3.33;;
32746;SDS011;19118;50.860;13.662;2023-02-01T05:55:01;25.42;;;4.53;;
32746;SDS011;19118;50.860;13.662;2023-02-01T06:00:02;18.60;;;3.00;;
32746;SDS011;19118;50.860;13.662;2023-02-01T06:05:12;21.60;;;3.25;;
32746;SDS011;19118;50.860;13.662;2023-02-01T06:10:13;11.98;;;3.20;;
32746;SDS011;19118;50.860;13.662;2023-02-01T06:15:14;16.40;;;3.50;;
32746;SDS011;19118;50.860;13.662;2023-02-01T06:20:18;16.92;;;3.40;;
32746;SDS011;19118;50.860;13.662;2023-02-01T06:25:18;21.80;;;3.38;;
32746;SDS011;19118;50.860;13.662;2023-02-01T06:30:19;18.73;;;3.85;;
32746;SDS011;19118;50.860;13.662;2023-02-01T06:35:20;16.35;;;3.03;;
32746;SDS011;19118;50.860;13.662;2023-02-01T06:40:20;30.70;;;3.67;;
32746;SDS011;19118;50.860;13.662;2023-02-01T06:45:21;20.73;;;3.97;;
32746;SDS011;19118;50.860;13.662;2023-02-01T06:50:21;20.53;;;3.50;;
32746;SDS011;19118;50.860;13.662;2023-02-01T06:55:21;17.70;;;4.53;;
32746;SDS011;19118;50.860;13.662;2023-02-01T07:00:22;14.80;;;4.10;;
32746;SDS011;19118;50.860;13.662;2023-02-01T07:05:23;18.65;;;4.82;;
32746;SDS011;19118;50.860;13.662;2023-02-01T07:10:23;14.50;;;3.08;;
32746;SDS011;19118;50.860;13.662;2023-02-01T07:15:24;14.60;;;3.33;;
32746;SDS011;19118;50.860;13.662;2023-02-01T07:20:24;21.90;;;3.45;;
32746;SDS011;19118;50.860;13.662;2023-02-01T07:25:25;20.67;;;4.22;;
32746;SDS011;19118;50.860;13.662;2023-02-01T07:30:25;18.27;;;3.47;;
32746;SDS011;19118;50.860;13.662;2023-02-01T07:35:26;22.67;;;4.93;;
32746;SDS011;19118;50.860;13.662;2023-02-01T07:40:28;22.17;;;4.63;;
32746;SDS011;19118;50.860;13.662;2023-02-01T07:45:31;18.70;;;4.10;;
32746;SDS011;19118;50.860;13.662;2023-02-01T07:50:31;19.60;;;4.40;;
32746;SDS011;19118;50.860;13.662;2023-02-01T07:55:32;23.02;;;4.82;;
32746;SDS011;19118;50.860;13.662;2023-02-01T08:00:33;16.33;;;3.30;;
32746;SDS011;19118;50.860;13.662;2023-02-01T08:05:55;19.43;;;3.90;;
32746;SDS011;19118;50.860;13.662;2023-02-01T08:10:59;20.73;;;3.42;;
32746;SDS011;19118;50.860;13.662;2023-02-01T08:16:01;30.20;;;4.22;;
32746;SDS011;19118;50.860;13.662;2023-02-01T08:21:03;24.95;;;4.45;;
32746;SDS011;19118;50.860;13.662;2023-02-01T08:26:10;14.95;;;3.97;;
32746;SDS011;19118;50.860;13.662;2023-02-01T08:31:15;18.50;;;4.28;;
32746;SDS011;19118;50.860;13.662;2023-02-01T08:36:17;16.48;;;4.25;;
32746;SDS011;19118;50.860;13.662;2023-02-01T08:41:19;14.55;;;3.67;;
32746;SDS011;19118;50.860;13.662;2023-02-01T08:46:22;17.65;;;3.15;;
32746;SDS011;19118;50.860;13.662;2023-02-01T08:51:23;19.80;;;3.03;;
32746;SDS011;19118;50.860;13.662;2023-02-01T08:56:24;15.45;;;3.85;;
32746;SDS011;19118;50.860;13.662;2023-02-01T09:01:24;19.47;;;3.50;;
32746;SDS011;19118;50.860;13.662;2023-02-01T09:06:25;20.60;;;3.90;;
32746;SDS011;19118;50.860;13.662;2023-02-01T09:11:25;19.67;;;3.70;;
32746;SDS011;19118;50.860;13.662;2023-02-01T09:16:26;20.08;;;4.45;;
32746;SDS011;19118;50.860;13.662;2023-02-01T09:21:26;26.07;;;5.00;;
32746;SDS011;19118;50.860;13.662;2023-02-01T09:26:26;23.98;;;5.80;;
32746;SDS011;19118;50.860;13.662;2023-02-01T09:31:27;14.93;;;4.28;;
32746;SDS011;19118;50.860;13.662;2023-02-01T09:36:28;14.18;;;3.97;;
32746;SDS011;19118;50.860;13.662;2023-02-01T09:41:42;15.15;;;4.55;;
32746;SDS011;19118;50.860;13.662;2023-02-01T09:46:53;23.15;;;4.13;;
32746;SDS011;19118;50.860;13.662;2023-02-01T09:51:56;21.05;;;4.00;;
32746;SDS011;19118;50.860;13.662;2023-02-01T09:57:14;10.93;;;3.65;;
32746;SDS011;19118;50.860;13.662;2023-02-01T10:02:21;17.42;;;3.67;;
32746;SDS011;19118;50.860;13.662;2023-02-01T10:13:48;21.75;;;2.85;;
32746;SDS011;19118;50.860;13.662;2023-02-01T10:19:01;13.15;;;2.80;;
32746;SDS011;19118;50.860;13.662;2023-02-01T10:24:15;8.68;;;3.20;;
32746;SDS011;19118;50.860;13.662;2023-02-01T10:29:25;7.13;;;2.53;;
32746;SDS011;19118;50.860;13.662;2023-02-01T10:34:33;9.13;;;2.97;;
32746;SDS011;19118;50.860;13.662;2023-02-01T10:39:34;11.80;;;4.03;;
32746;SDS011;19118;50.860;13.662;2023-02-01T10:44:37;16.95;;;4.60;;
32746;SDS011;19118;50.860;13.662;2023-02-01T10:49:49;16.40;;;5.00;;
32746;SDS011;19118;50.860;13.662;2023-02-01T10:54:52;14.25;;;4.95;;
32746;SDS011;19118;50.860;13.662;2023-02-01T10:59:53;33.35;;;5.72;;
32746;SDS011;19118;50.860;13.662;2023-02-01T11:05:01;23.50;;;5.00;;
32746;SDS011;19118;50.860;13.662;2023-02-01T11:10:10;18.20;;;4.60;;
32746;SDS011;19118;50.860;13.662;2023-02-01T11:15:42;15.77;;;3.97;;
32746;SDS011;19118;50.860;13.662;2023-02-01T11:20:45;10.02;;;3.75;;
32746;SDS011;19118;50.860;13.662;2023-02-01T11:25:56;23.00;;;3.97;;
32746;SDS011;19118;50.860;13.662;2023-02-01T11:31:01;14.90;;;4.03;;
32746;SDS011;19118;50.860;13.662;2023-02-01T11:36:08;27.48;;;4.57;;
32746;SDS011;19118;50.860;13.662;2023-02-01T11:41:13;24.45;;;3.72;;
32746;SDS011;19118;50.860;13.662;2023-02-01T11:46:28;30.30;;;4.35;;
32746;SDS011;19118;50.860;13.662;2023-02-01T11:52:18;16.65;;;4.72;;
32746;SDS011;19118;50.860;13.662;2023-02-01T12:13:32;8.85;;;2.53;;
32746;SDS011;19118;50.860;13.662;2023-02-01T12:18:48;15.48;;;3.05;;
32746;SDS011;19118;50.860;13.662;2023-02-01T12:46:19;17.52;;;3.10;;
32746;SDS011;19118;50.860;13.662;2023-02-01T12:51:24;11.63;;;2.35;;
32746;SDS011;19118;50.860;13.662;2023-02-01T12:56:38;14.90;;;3.85;;
32746;SDS011;19118;50.860;13.662;2023-02-01T13:01:48;10.70;;;2.65;;
32746;SDS011;19118;50.860;13.662;2023-02-01T13:12:21;11.20;;;2.35;;
32746;SDS011;19118;50.860;13.662;2023-02-01T13:17:30;12.68;;;3.58;;
32746;SDS011;19118;50.860;13.662;2023-02-01T13:22:43;23.20;;;5.13;;
32746;SDS011;19118;50.860;13.662;2023-02-01T13:27:47;12.90;;;2.65;;
32746;SDS011;19118;50.860;13.662;2023-02-01T13:43:29;15.63;;;2.90;;
32746;SDS011;19118;50.860;13.662;2023-02-01T13:48:53;15.38;;;2.67;;
32746;SDS011;19118;50.860;13.662;2023-02-01T13:53:54;13.95;;;2.85;;
32746;SDS011;19118;50.860;13.662;2023-02-01T13:58:54;15.30;;;2.58;;
32746;SDS011;19118;50.860;13.662;2023-02-01T14:03:58;16.50;;;3.20;;
32746;SDS011;19118;50.860;13.662;2023-02-01T14:24:25;7.45;;;1.75;;
32746;SDS011;19118;50.860;13.662;2023-02-01T14:29:27;14.43;;;3.00;;
32746;SDS011;19118;50.860;13.662;2023-02-01T14:34:37;11.18;;;2.25;;
32746;SDS011;19118;50.860;13.662;2023-02-01T14:39:54;9.48;;;2.97;;
32746;SDS011;19118;50.860;13.662;2023-02-01T14:50:27;10.30;;;2.33;;
32746;SDS011;19118;50.860;13.662;2023-02-01T15:00:46;7.20;;;2.42;;
32746;SDS011;19118;50.860;13.662;2023-02-01T15:05:56;12.57;;;2.80;;
32746;SDS011;19118;50.860;13.662;2023-02-01T15:10:58;13.15;;;3.13;;
32746;SDS011;19118;50.860;13.662;2023-02-01T15:21:02;9.63;;;2.63;;
32746;SDS011;19118;50.860;13.662;2023-02-01T15:26:05;16.15;;;2.50;;
32746;SDS011;19118;50.860;13.662;2023-02-01T15:31:05;10.80;;;2.73;;
32746;SDS011;19118;50.860;13.662;2023-02-01T15:46:21;10.10;;;3.05;;
32746;SDS011;19118;50.860;13.662;2023-02-01T15:51:31;22.27;;;4.35;;
32746;SDS011;19118;50.860;13.662;2023-02-01T15:56:36;15.35;;;3.80;;
32746;SDS011;19118;50.860;13.662;2023-02-01T16:01:38;9.43;;;3.50;;
32746;SDS011;19118;50.860;13.662;2023-02-01T16:06:44;17.33;;;4.50;;
32746;SDS011;19118;50.860;13.662;2023-02-01T16:11:57;12.70;;;3.92;;
32746;SDS011;19118;50.860;13.662;2023-02-01T16:16:59;22.95;;;4.88;;
32746;SDS011;19118;50.860;13.662;2023-02-01T16:21:59;20.58;;;5.70;;
32746;SDS011;19118;50.860;13.662;2023-02-01T16:27:00;24.15;;;5.25;;
32746;SDS011;19118;50.860;13.662;2023-02-01T16:32:00;19.03;;;4.93;;
32746;SDS011;19118;50.860;13.662;2023-02-01T16:37:00;20.77;;;5.80;;
32746;SDS011;19118;50.860;13.662;2023-02-01T16:42:08;26.25;;;5.28;;
32746;SDS011;19118;50.860;13.662;2023-02-01T16:47:12;13.45;;;3.92;;
32746;SDS011;19118;50.860;13.662;2023-02-01T16:52:17;13.65;;;4.10;;
32746;SDS011;19118;50.860;13.662;2023-02-01T16:57:20;9.93;;;3.75;;
32746;SDS011;19118;50.860;13.662;2023-02-01T17:02:23;16.25;;;3.72;;
32746;SDS011;19118;50.860;13.662;2023-02-01T17:07:23;12.52;;;3.85;;
32746;SDS011;19118;50.860;13.662;2023-02-01T17:12:24;18.80;;;3.42;;
32746;SDS011;19118;50.860;13.662;2023-02-01T17:17:27;28.77;;;6.88;;
32746;SDS011;19118;50.860;13.662;2023-02-01T17:22:33;19.20;;;7.55;;
32746;SDS011;19118;50.860;13.662;2023-02-01T17:27:34;10.45;;;4.07;;
32746;SDS011;19118;50.860;13.662;2023-02-01T17:32:36;8.18;;;2.17;;
32746;SDS011;19118;50.860;13.662;2023-02-01T17:37:36;3.90;;;2.10;;
32746;SDS011;19118;50.860;13.662;2023-02-01T17:42:37;4.95;;;1.75;;
32746;SDS011;19118;50.860;13.662;2023-02-01T17:47:37;3.15;;;1.17;;
32746;SDS011;19118;50.860;13.662;2023-02-01T17:52:37;2.95;;;1.15;;
32746;SDS011;19118;50.860;13.662;2023-02-01T17:57:38;10.43;;;0.95;;
32746;SDS011;19118;50.860;13.662;2023-02-01T18:02:39;3.50;;;1.05;;
32746;SDS011;19118;50.860;13.662;2023-02-01T18:07:39;2.45;;;0.88;;
32746;SDS011;19118;50.860;13.662;2023-02-01T18:12:40;10.88;;;1.13;;
32746;SDS011;19118;50.860;13.662;2023-02-01T18:17:40;7.97;;;1.27;;
32746;SDS011;19118;50.860;13.662;2023-02-01T18:22:41;8.95;;;2.05;;
32746;SDS011;19118;50.860;13.662;2023-02-01T18:27:42;15.25;;;2.63;;
32746;SDS011;19118;50.860;13.662;2023-02-01T18:32:43;14.57;;;1.90;;
32746;SDS011;19118;50.860;13.662;2023-02-01T18:37:44;11.48;;;2.08;;
32746;SDS011;19118;50.860;13.662;2023-02-01T18:42:45;15.48;;;1.90;;
32746;SDS011;19118;50.860;13.662;2023-02-01T18:47:45;7.68;;;1.60;;
32746;SDS011;19118;50.860;13.662;2023-02-01T18:52:46;10.97;;;1.77;;
32746;SDS011;19118;50.860;13.662;2023-02-01T18:57:46;12.60;;;1.65;;
32746;SDS011;19118;50.860;13.662;2023-02-01T19:02:47;10.35;;;1.30;;
32746;SDS011;19118;50.860;13.662;2023-02-01T19:07:48;6.53;;;1.20;;
32746;SDS011;19118;50.860;13.662;2023-02-01T19:12:49;7.10;;;1.35;;
32746;SDS011;19118;50.860;13.662;2023-02-01T19:17:51;2.45;;;1.20;;
32746;SDS011;19118;50.860;13.662;2023-02-01T19:22:56;6.65;;;1.80;;
32746;SDS011;19118;50.860;13.662;2023-02-01T19:27:56;5.97;;;1.33;;
32746;SDS011;19118;50.860;13.662;2023-02-01T19:32:56;7.13;;;3.23;;
32746;SDS011;19118;50.860;13.662;2023-02-01T19:37:57;9.33;;;2.87;;
32746;SDS011;19118;50.860;13.662;2023-02-01T19:42:57;12.20;;;2.45;;
32746;SDS011;19118;50.860;13.662;2023-02-01T19:47:57;9.10;;;2.25;;
32746;SDS011;19118;50.860;13.662;2023-02-01T19:52:58;4.72;;;1.90;;
32746;SDS011;19118;50.860;13.662;2023-02-01T19:57:58;16.17;;;4.70;;
32746;SDS011;19118;50.860;13.662;2023-02-01T20:03:01;11.55;;;3.60;;
32746;SDS011;19118;50.860;13.662;2023-02-01T20:08:01;11.27;;;3.42;;
32746;SDS011;19118;50.860;13.662;2023-02-01T20:13:02;8.52;;;2.95;;
32746;SDS011;19118;50.860;13.662;2023-02-01T20:18:02;9.17;;;2.67;;
32746;SDS011;19118;50.860;13.662;2023-02-01T20:23:03;15.60;;;4.20;;
32746;SDS011;19118;50.860;13.662;2023-02-01T20:28:04;10.13;;;2.70;;
32746;SDS011;19118;50.860;13.662;2023-02-01T20:33:04;14.18;;;3.15;;
32746;SDS011;19118;50.860;13.662;2023-02-01T20:38:04;11.27;;;2.97;;
32746;SDS011;19118;50.860;13.662;2023-02-01T20:43:05;6.40;;;2.17;;
32746;SDS011;19118;50.860;13.662;2023-02-01T20:48:05;11.93;;;2.42;;
32746;SDS011;19118;50.860;13.662;2023-02-01T20:53:06;11.88;;;2.60;;
32746;SDS011;19118;50.860;13.662;2023-02-01T20:58:06;10.38;;;3.20;;
32746;SDS011;19118;50.860;13.662;2023-02-01T21:03:07;9.07;;;2.58;;
32746;SDS011;19118;50.860;13.662;2023-02-01T21:08:08;8.82;;;2.58;;
32746;SDS011;19118;50.860;13.662;2023-02-01T21:13:10;7.57;;;2.60;;
32746;SDS011;19118;50.860;13.662;2023-02-01T21:18:11;7.07;;;3.08;;
32746;SDS011;19118;50.860;13.662;2023-02-01T21:23:13;5.95;;;2.75;;
32746;SDS011;19118;50.860;13.662;2023-02-01T21:28:14;14.02;;;3.45;;
32746;SDS011;19118;50.860;13.662;2023-02-01T21:33:14;12.07;;;3.42;;
32746;SDS011;19118;50.860;13.662;2023-02-01T21:38:14;17.77;;;3.93;;
32746;SDS011;19118;50.860;13.662;2023-02-01T21:43:15;8.95;;;4.10;;
32746;SDS011;19118;50.860;13.662;2023-02-01T21:48:15;13.67;;;3.73;;
32746;SDS011;19118;50.860;13.662;2023-02-01T21:53:15;9.63;;;4.13;;
32746;SDS011;19118;50.860;13.662;2023-02-01T21:58:16;17.23;;;4.80;;
32746;SDS011;19118;50.860;13.662;2023-02-01T22:03:16;12.60;;;4.80;;
32746;SDS011;19118;50.860;13.662;2023-02-01T22:08:16;12.23;;;5.40;;
32746;SDS011;19118;50.860;13.662;2023-02-01T22:13:17;20.27;;;5.50;;
32746;SDS011;19118;50.860;13.662;2023-02-01T22:18:17;16.10;;;6.07;;
32746;SDS011;19118;50.860;13.662;2023-02-01T22:23:18;16.85;;;5.10;;
32746;SDS011;19118;50.860;13.662;2023-02-01T22:28:18;20.17;;;6.60;;
32746;SDS011;19118;50.860;13.662;2023-02-01T22:33:20;15.20;;;5.15;;
32746;SDS011;19118;50.860;13.662;2023-02-01T22:38:21;15.35;;;5.35;;
32746;SDS011;19118;50.860;13.662;2023-02-01T22:43:22;21.83;;;5.85;;
32746;SDS011;19118;50.860;13.662;2023-02-01T22:48:22;20.42;;;4.13;;
32746;SDS011;19118;50.860;13.662;2023-02-01T22:53:23;21.02;;;6.63;;
32746;SDS011;19118;50.860;13.662;2023-02-01T22:58:23;16.48;;;3.80;;
32746;SDS011;19118;50.860;13.662;2023-02-01T23:03:23;11.63;;;3.50;;
32746;SDS011;19118;50.860;13.662;2023-02-01T23:08:24;11.00;;;3.20;;
32746;SDS011;19118;50.860;13.662;2023-02-01T23:13:24;12.98;;;3.22;;
32746;SDS011;19118;50.860;13.662;2023-02-01T23:18:24;17.10;;;3.73;;
32746;SDS011;19118;50.860;13.662;2023-02-01T23:23:27;16.88;;;4.55;;
32746;SDS011;19118;50.860;13.662;2023-02-01T23:28:27;14.50;;;3.38;;
32746;SDS011;19118;50.860;13.662;2023-02-01T23:33:28;11.43;;;2.83;;
32746;SDS011;19118;50.860;13.662;2023-02-01T23:38:28;11.73;;;4.07;;
32746;SDS011;19118;50.860;13.662;2023-02-01T23:43:29;9.05;;;3.03;;
32746;SDS011;19118;50.860;13.662;2023-02-01T23:48:48;7.45;;;2.72;;
32746;SDS011;19118;50.860;13.662;2023-02-01T23:53:52;22.30;;;4.53;;
32746;SDS011;19118;50.860;13.662;2023-02-01T23:58:53;11.80;;;3.03;;
